Terminal Aerodrome Forecast
Issued by NWS

Current Version | Previous Version | Graphics & Text | Print | Product List | Glossary On
Versions: 1 2 3 4 5 6 7 8 9 10 11 12 13 14 15 16 17 18 19 20 21 22 23 24 25
904
FTUS41 KILN 201508 AAA
TAFLUK
TAF AMD
KLUK 201508Z 2015/2112 00000KT P6SM BKN030
     FM201600 27003KT P6SM SCT045
     FM210100 00000KT P6SM SCT070
     FM210500 00000KT 3SM BR FEW070
     FM210800 00000KT 1SM BR FEW050=

USA.gov is the U.S. government's official web portal to all federal, state and local government web resources and services.